sensor_id;sensor_type;location;lat;lon;timestamp;P1;durP1;ratioP1;P2;durP2;ratioP2
9789;SDS011;4934;50.852;8.098;2022-12-10T00:01:06;42.93;;;14.20;;
9789;SDS011;4934;50.852;8.098;2022-12-10T00:03:36;42.77;;;13.70;;
9789;SDS011;4934;50.852;8.098;2022-12-10T00:06:02;38.77;;;12.93;;
9789;SDS011;4934;50.852;8.098;2022-12-10T00:08:29;40.43;;;13.80;;
9789;SDS011;4934;50.852;8.098;2022-12-10T00:10:55;35.50;;;13.57;;
9789;SDS011;4934;50.852;8.098;2022-12-10T00:13:21;42.90;;;14.60;;
9789;SDS011;4934;50.852;8.098;2022-12-10T00:15:47;54.07;;;16.77;;
9789;SDS011;4934;50.852;8.098;2022-12-10T00:18:13;42.67;;;14.70;;
9789;SDS011;4934;50.852;8.098;2022-12-10T00:20:39;32.70;;;12.37;;
9789;SDS011;4934;50.852;8.098;2022-12-10T00:23:04;40.30;;;13.33;;
9789;SDS011;4934;50.852;8.098;2022-12-10T00:25:31;33.10;;;11.33;;
9789;SDS011;4934;50.852;8.098;2022-12-10T00:27:59;30.80;;;10.37;;
9789;SDS011;4934;50.852;8.098;2022-12-10T00:30:25;30.07;;;10.93;;
9789;SDS011;4934;50.852;8.098;2022-12-10T00:32:50;33.50;;;11.80;;
9789;SDS011;4934;50.852;8.098;2022-12-10T00:35:16;31.47;;;12.00;;
9789;SDS011;4934;50.852;8.098;2022-12-10T00:37:42;33.67;;;13.07;;
9789;SDS011;4934;50.852;8.098;2022-12-10T00:40:07;33.23;;;11.80;;
9789;SDS011;4934;50.852;8.098;2022-12-10T00:42:33;30.83;;;13.10;;
9789;SDS011;4934;50.852;8.098;2022-12-10T00:44:59;38.37;;;13.43;;
9789;SDS011;4934;50.852;8.098;2022-12-10T00:47:24;39.80;;;13.53;;
9789;SDS011;4934;50.852;8.098;2022-12-10T00:49:50;41.90;;;14.23;;
9789;SDS011;4934;50.852;8.098;2022-12-10T00:52:16;44.60;;;15.13;;
9789;SDS011;4934;50.852;8.098;2022-12-10T00:54:41;52.20;;;15.23;;
9789;SDS011;4934;50.852;8.098;2022-12-10T00:57:07;46.90;;;15.23;;
9789;SDS011;4934;50.852;8.098;2022-12-10T00:59:32;42.03;;;13.73;;
9789;SDS011;4934;50.852;8.098;2022-12-10T01:01:58;35.17;;;10.90;;
9789;SDS011;4934;50.852;8.098;2022-12-10T01:04:24;42.77;;;13.93;;
9789;SDS011;4934;50.852;8.098;2022-12-10T01:06:50;37.23;;;12.47;;
9789;SDS011;4934;50.852;8.098;2022-12-10T01:09:21;33.60;;;11.38;;
9789;SDS011;4934;50.852;8.098;2022-12-10T01:11:57;40.43;;;13.80;;
9789;SDS011;4934;50.852;8.098;2022-12-10T01:14:27;34.67;;;14.07;;
9789;SDS011;4934;50.852;8.098;2022-12-10T01:16:55;35.55;;;14.10;;
9789;SDS011;4934;50.852;8.098;2022-12-10T01:19:22;39.35;;;14.15;;
9789;SDS011;4934;50.852;8.098;2022-12-10T01:21:52;46.83;;;13.40;;
9789;SDS011;4934;50.852;8.098;2022-12-10T01:24:22;34.63;;;11.63;;
9789;SDS011;4934;50.852;8.098;2022-12-10T01:26:49;30.37;;;10.33;;
9789;SDS011;4934;50.852;8.098;2022-12-10T01:29:14;31.90;;;11.10;;
9789;SDS011;4934;50.852;8.098;2022-12-10T01:31:40;32.97;;;11.70;;
9789;SDS011;4934;50.852;8.098;2022-12-10T01:34:07;34.47;;;13.00;;
9789;SDS011;4934;50.852;8.098;2022-12-10T01:36:37;33.13;;;12.07;;
9789;SDS011;4934;50.852;8.098;2022-12-10T01:39:08;44.93;;;14.03;;
9789;SDS011;4934;50.852;8.098;2022-12-10T01:46:36;37.22;;;12.85;;
9789;SDS011;4934;50.852;8.098;2022-12-10T01:49:08;36.33;;;12.13;;
9789;SDS011;4934;50.852;8.098;2022-12-10T01:51:36;30.40;;;9.70;;
9789;SDS011;4934;50.852;8.098;2022-12-10T01:54:04;29.70;;;12.00;;
9789;SDS011;4934;50.852;8.098;2022-12-10T01:56:34;35.10;;;13.00;;
9789;SDS011;4934;50.852;8.098;2022-12-10T01:59:03;36.70;;;12.20;;
9789;SDS011;4934;50.852;8.098;2022-12-10T02:05:09;30.83;;;11.23;;
9789;SDS011;4934;50.852;8.098;2022-12-10T02:07:32;26.87;;;10.07;;
9789;SDS011;4934;50.852;8.098;2022-12-10T02:16:09;24.63;;;10.93;;
9789;SDS011;4934;50.852;8.098;2022-12-10T02:18:51;25.73;;;9.27;;
9789;SDS011;4934;50.852;8.098;2022-12-10T02:21:33;26.70;;;9.73;;
9789;SDS011;4934;50.852;8.098;2022-12-10T02:24:03;25.17;;;10.17;;
9789;SDS011;4934;50.852;8.098;2022-12-10T02:29:14;34.27;;;11.57;;
9789;SDS011;4934;50.852;8.098;2022-12-10T02:31:44;35.13;;;12.73;;
9789;SDS011;4934;50.852;8.098;2022-12-10T02:34:33;30.93;;;10.77;;
9789;SDS011;4934;50.852;8.098;2022-12-10T02:37:11;26.93;;;10.57;;
9789;SDS011;4934;50.852;8.098;2022-12-10T02:39:44;33.43;;;10.00;;
9789;SDS011;4934;50.852;8.098;2022-12-10T02:42:13;26.97;;;9.37;;
9789;SDS011;4934;50.852;8.098;2022-12-10T02:44:42;31.67;;;11.77;;
9789;SDS011;4934;50.852;8.098;2022-12-10T02:47:09;30.77;;;10.80;;
9789;SDS011;4934;50.852;8.098;2022-12-10T02:49:36;35.17;;;11.40;;
9789;SDS011;4934;50.852;8.098;2022-12-10T02:52:12;34.40;;;12.00;;
9789;SDS011;4934;50.852;8.098;2022-12-10T02:54:40;37.17;;;11.60;;
9789;SDS011;4934;50.852;8.098;2022-12-10T02:57:24;35.50;;;11.90;;
9789;SDS011;4934;50.852;8.098;2022-12-10T03:02:39;34.90;;;11.77;;
9789;SDS011;4934;50.852;8.098;2022-12-10T03:08:03;32.27;;;10.87;;
9789;SDS011;4934;50.852;8.098;2022-12-10T03:13:15;33.73;;;11.67;;
9789;SDS011;4934;50.852;8.098;2022-12-10T03:15:43;34.17;;;11.40;;
9789;SDS011;4934;50.852;8.098;2022-12-10T03:18:10;28.43;;;10.57;;
9789;SDS011;4934;50.852;8.098;2022-12-10T03:20:40;31.53;;;11.13;;
9789;SDS011;4934;50.852;8.098;2022-12-10T03:23:10;28.87;;;9.77;;
9789;SDS011;4934;50.852;8.098;2022-12-10T03:25:41;35.03;;;11.07;;
9789;SDS011;4934;50.852;8.098;2022-12-10T03:28:07;30.57;;;10.13;;
9789;SDS011;4934;50.852;8.098;2022-12-10T03:30:34;30.47;;;9.93;;
9789;SDS011;4934;50.852;8.098;2022-12-10T03:33:02;31.10;;;9.98;;
9789;SDS011;4934;50.852;8.098;2022-12-10T03:35:28;29.60;;;10.20;;
9789;SDS011;4934;50.852;8.098;2022-12-10T03:37:55;34.37;;;11.00;;
9789;SDS011;4934;50.852;8.098;2022-12-10T03:40:22;34.27;;;11.10;;
9789;SDS011;4934;50.852;8.098;2022-12-10T03:42:49;28.30;;;9.10;;
9789;SDS011;4934;50.852;8.098;2022-12-10T03:45:15;31.27;;;10.37;;
9789;SDS011;4934;50.852;8.098;2022-12-10T03:47:41;30.83;;;9.27;;
9789;SDS011;4934;50.852;8.098;2022-12-10T03:50:07;31.33;;;10.80;;
9789;SDS011;4934;50.852;8.098;2022-12-10T03:52:33;32.37;;;9.93;;
9789;SDS011;4934;50.852;8.098;2022-12-10T03:54:59;26.63;;;9.43;;
9789;SDS011;4934;50.852;8.098;2022-12-10T03:57:25;24.87;;;8.43;;
9789;SDS011;4934;50.852;8.098;2022-12-10T03:59:50;29.77;;;9.43;;
9789;SDS011;4934;50.852;8.098;2022-12-10T04:02:16;29.17;;;9.43;;
9789;SDS011;4934;50.852;8.098;2022-12-10T04:04:42;28.60;;;10.33;;
9789;SDS011;4934;50.852;8.098;2022-12-10T04:07:07;26.90;;;9.53;;
9789;SDS011;4934;50.852;8.098;2022-12-10T04:09:36;29.73;;;7.93;;
9789;SDS011;4934;50.852;8.098;2022-12-10T04:12:01;25.88;;;10.55;;
9789;SDS011;4934;50.852;8.098;2022-12-10T04:14:27;30.80;;;10.07;;
9789;SDS011;4934;50.852;8.098;2022-12-10T04:17:11;25.30;;;8.30;;
9789;SDS011;4934;50.852;8.098;2022-12-10T04:19:38;27.40;;;8.60;;
9789;SDS011;4934;50.852;8.098;2022-12-10T04:22:03;32.00;;;9.70;;
9789;SDS011;4934;50.852;8.098;2022-12-10T04:24:52;33.23;;;9.73;;
9789;SDS011;4934;50.852;8.098;2022-12-10T04:27:37;27.70;;;8.25;;
9789;SDS011;4934;50.852;8.098;2022-12-10T04:30:04;24.50;;;8.70;;
9789;SDS011;4934;50.852;8.098;2022-12-10T04:32:31;28.85;;;10.10;;
9789;SDS011;4934;50.852;8.098;2022-12-10T04:34:57;28.13;;;8.57;;
9789;SDS011;4934;50.852;8.098;2022-12-10T04:37:24;33.67;;;10.33;;
9789;SDS011;4934;50.852;8.098;2022-12-10T04:39:50;31.80;;;8.97;;
9789;SDS011;4934;50.852;8.098;2022-12-10T04:42:16;29.60;;;9.97;;
9789;SDS011;4934;50.852;8.098;2022-12-10T04:44:43;28.50;;;10.07;;
9789;SDS011;4934;50.852;8.098;2022-12-10T04:47:09;28.97;;;10.23;;
9789;SDS011;4934;50.852;8.098;2022-12-10T04:49:35;36.27;;;10.77;;
9789;SDS011;4934;50.852;8.098;2022-12-10T04:52:02;24.47;;;8.80;;
9789;SDS011;4934;50.852;8.098;2022-12-10T04:54:28;34.93;;;9.57;;
9789;SDS011;4934;50.852;8.098;2022-12-10T04:56:55;24.87;;;9.07;;
9789;SDS011;4934;50.852;8.098;2022-12-10T04:59:20;41.40;;;11.17;;
9789;SDS011;4934;50.852;8.098;2022-12-10T05:01:46;26.27;;;9.83;;
9789;SDS011;4934;50.852;8.098;2022-12-10T05:04:13;31.53;;;11.20;;
9789;SDS011;4934;50.852;8.098;2022-12-10T05:09:06;27.67;;;8.53;;
9789;SDS011;4934;50.852;8.098;2022-12-10T05:11:33;21.70;;;8.20;;
9789;SDS011;4934;50.852;8.098;2022-12-10T05:13:59;29.77;;;10.73;;
9789;SDS011;4934;50.852;8.098;2022-12-10T05:16:26;32.67;;;9.67;;
9789;SDS011;4934;50.852;8.098;2022-12-10T05:18:53;23.90;;;8.20;;
9789;SDS011;4934;50.852;8.098;2022-12-10T05:21:20;25.70;;;7.40;;
9789;SDS011;4934;50.852;8.098;2022-12-10T05:23:47;24.50;;;8.93;;
9789;SDS011;4934;50.852;8.098;2022-12-10T05:26:19;25.57;;;9.47;;
9789;SDS011;4934;50.852;8.098;2022-12-10T05:28:48;27.07;;;8.67;;
9789;SDS011;4934;50.852;8.098;2022-12-10T05:31:22;39.97;;;11.07;;
9789;SDS011;4934;50.852;8.098;2022-12-10T05:36:24;32.90;;;9.67;;
9789;SDS011;4934;50.852;8.098;2022-12-10T05:38:51;33.72;;;11.00;;
9789;SDS011;4934;50.852;8.098;2022-12-10T05:41:20;34.83;;;11.33;;
9789;SDS011;4934;50.852;8.098;2022-12-10T05:46:15;29.80;;;8.80;;
9789;SDS011;4934;50.852;8.098;2022-12-10T05:48:46;28.90;;;9.33;;
9789;SDS011;4934;50.852;8.098;2022-12-10T05:51:13;23.43;;;7.97;;
9789;SDS011;4934;50.852;8.098;2022-12-10T05:53:40;27.50;;;8.30;;
9789;SDS011;4934;50.852;8.098;2022-12-10T05:56:08;30.50;;;9.33;;
9789;SDS011;4934;50.852;8.098;2022-12-10T05:58:36;17.60;;;8.63;;
9789;SDS011;4934;50.852;8.098;2022-12-10T06:01:06;25.77;;;9.33;;
9789;SDS011;4934;50.852;8.098;2022-12-10T06:03:42;24.37;;;8.27;;
9789;SDS011;4934;50.852;8.098;2022-12-10T06:06:08;26.33;;;9.33;;
9789;SDS011;4934;50.852;8.098;2022-12-10T06:08:35;31.27;;;9.97;;
9789;SDS011;4934;50.852;8.098;2022-12-10T06:11:04;25.53;;;9.87;;
9789;SDS011;4934;50.852;8.098;2022-12-10T06:13:31;29.17;;;9.93;;
9789;SDS011;4934;50.852;8.098;2022-12-10T06:15:57;30.00;;;10.47;;
9789;SDS011;4934;50.852;8.098;2022-12-10T06:18:23;37.50;;;11.30;;
9789;SDS011;4934;50.852;8.098;2022-12-10T06:20:49;28.27;;;9.97;;
9789;SDS011;4934;50.852;8.098;2022-12-10T06:23:14;34.73;;;10.43;;
9789;SDS011;4934;50.852;8.098;2022-12-10T06:25:40;34.57;;;10.77;;
9789;SDS011;4934;50.852;8.098;2022-12-10T06:28:06;34.93;;;11.47;;
9789;SDS011;4934;50.852;8.098;2022-12-10T06:30:33;37.23;;;11.03;;
9789;SDS011;4934;50.852;8.098;2022-12-10T06:32:58;31.90;;;10.37;;
9789;SDS011;4934;50.852;8.098;2022-12-10T06:35:24;27.97;;;9.83;;
9789;SDS011;4934;50.852;8.098;2022-12-10T06:37:51;24.90;;;8.87;;
9789;SDS011;4934;50.852;8.098;2022-12-10T06:40:17;28.90;;;9.53;;
9789;SDS011;4934;50.852;8.098;2022-12-10T06:42:43;26.07;;;9.03;;
9789;SDS011;4934;50.852;8.098;2022-12-10T06:45:09;30.87;;;8.87;;
9789;SDS011;4934;50.852;8.098;2022-12-10T06:47:35;28.43;;;9.17;;
9789;SDS011;4934;50.852;8.098;2022-12-10T06:50:00;33.13;;;11.80;;
9789;SDS011;4934;50.852;8.098;2022-12-10T06:52:26;53.37;;;14.67;;
9789;SDS011;4934;50.852;8.098;2022-12-10T06:54:54;53.70;;;14.37;;
9789;SDS011;4934;50.852;8.098;2022-12-10T06:59:46;41.93;;;12.73;;
9789;SDS011;4934;50.852;8.098;2022-12-10T07:07:06;32.33;;;9.77;;
9789;SDS011;4934;50.852;8.098;2022-12-10T07:09:32;36.67;;;11.50;;
9789;SDS011;4934;50.852;8.098;2022-12-10T07:11:58;36.80;;;12.20;;
9789;SDS011;4934;50.852;8.098;2022-12-10T07:14:24;33.60;;;11.63;;
9789;SDS011;4934;50.852;8.098;2022-12-10T07:16:51;35.20;;;10.67;;
9789;SDS011;4934;50.852;8.098;2022-12-10T07:19:17;35.13;;;10.40;;
9789;SDS011;4934;50.852;8.098;2022-12-10T07:21:43;28.17;;;10.60;;
9789;SDS011;4934;50.852;8.098;2022-12-10T07:24:10;31.90;;;10.43;;
9789;SDS011;4934;50.852;8.098;2022-12-10T07:26:40;29.27;;;9.47;;
9789;SDS011;4934;50.852;8.098;2022-12-10T07:29:09;27.33;;;9.00;;
9789;SDS011;4934;50.852;8.098;2022-12-10T07:31:38;27.37;;;9.63;;
9789;SDS011;4934;50.852;8.098;2022-12-10T07:34:04;21.87;;;8.40;;
9789;SDS011;4934;50.852;8.098;2022-12-10T07:36:30;29.50;;;9.80;;
9789;SDS011;4934;50.852;8.098;2022-12-10T07:39:00;27.43;;;8.47;;
9789;SDS011;4934;50.852;8.098;2022-12-10T07:41:26;31.77;;;10.47;;
9789;SDS011;4934;50.852;8.098;2022-12-10T07:43:52;24.63;;;8.97;;
9789;SDS011;4934;50.852;8.098;2022-12-10T07:46:19;33.33;;;10.87;;
9789;SDS011;4934;50.852;8.098;2022-12-10T07:48:49;30.03;;;10.57;;
9789;SDS011;4934;50.852;8.098;2022-12-10T07:51:16;35.73;;;11.07;;
9789;SDS011;4934;50.852;8.098;2022-12-10T07:53:42;39.87;;;12.57;;
9789;SDS011;4934;50.852;8.098;2022-12-10T07:56:08;37.63;;;12.73;;
9789;SDS011;4934;50.852;8.098;2022-12-10T07:58:34;36.43;;;12.77;;
9789;SDS011;4934;50.852;8.098;2022-12-10T08:01:33;41.80;;;12.57;;
9789;SDS011;4934;50.852;8.098;2022-12-10T08:03:53;45.43;;;14.83;;
9789;SDS011;4934;50.852;8.098;2022-12-10T08:06:23;42.40;;;14.70;;
9789;SDS011;4934;50.852;8.098;2022-12-10T08:08:49;34.67;;;12.93;;
9789;SDS011;4934;50.852;8.098;2022-12-10T08:11:15;49.00;;;15.20;;
9789;SDS011;4934;50.852;8.098;2022-12-10T08:13:43;41.85;;;14.95;;
9789;SDS011;4934;50.852;8.098;2022-12-10T08:16:20;40.43;;;14.00;;
9789;SDS011;4934;50.852;8.098;2022-12-10T08:18:48;40.73;;;12.27;;
9789;SDS011;4934;50.852;8.098;2022-12-10T08:21:18;50.50;;;14.77;;
9789;SDS011;4934;50.852;8.098;2022-12-10T08:23:46;49.57;;;17.03;;
9789;SDS011;4934;50.852;8.098;2022-12-10T08:26:13;52.83;;;19.03;;
9789;SDS011;4934;50.852;8.098;2022-12-10T08:28:41;59.50;;;17.00;;
9789;SDS011;4934;50.852;8.098;2022-12-10T08:31:07;38.97;;;15.77;;
9789;SDS011;4934;50.852;8.098;2022-12-10T08:33:36;53.70;;;16.80;;
9789;SDS011;4934;50.852;8.098;2022-12-10T08:36:03;50.37;;;16.53;;
9789;SDS011;4934;50.852;8.098;2022-12-10T08:38:30;60.53;;;16.27;;
9789;SDS011;4934;50.852;8.098;2022-12-10T08:40:56;64.60;;;19.60;;
9789;SDS011;4934;50.852;8.098;2022-12-10T08:43:22;62.50;;;20.10;;
9789;SDS011;4934;50.852;8.098;2022-12-10T08:45:48;62.83;;;20.40;;
9789;SDS011;4934;50.852;8.098;2022-12-10T08:48:13;59.47;;;21.37;;
9789;SDS011;4934;50.852;8.098;2022-12-10T08:50:39;62.83;;;21.70;;
9789;SDS011;4934;50.852;8.098;2022-12-10T08:53:04;56.13;;;17.13;;
9789;SDS011;4934;50.852;8.098;2022-12-10T08:55:30;54.40;;;16.60;;
9789;SDS011;4934;50.852;8.098;2022-12-10T08:57:56;46.83;;;15.00;;
9789;SDS011;4934;50.852;8.098;2022-12-10T09:00:23;50.53;;;15.63;;
9789;SDS011;4934;50.852;8.098;2022-12-10T09:02:49;55.53;;;15.60;;
9789;SDS011;4934;50.852;8.098;2022-12-10T09:05:15;59.03;;;16.83;;
9789;SDS011;4934;50.852;8.098;2022-12-10T09:07:40;56.97;;;17.07;;
9789;SDS011;4934;50.852;8.098;2022-12-10T09:10:06;64.30;;;19.57;;
9789;SDS011;4934;50.852;8.098;2022-12-10T09:12:33;52.27;;;17.37;;
9789;SDS011;4934;50.852;8.098;2022-12-10T09:14:59;56.97;;;18.30;;
9789;SDS011;4934;50.852;8.098;2022-12-10T09:17:25;61.10;;;16.67;;
9789;SDS011;4934;50.852;8.098;2022-12-10T09:19:50;53.80;;;16.87;;
9789;SDS011;4934;50.852;8.098;2022-12-10T09:22:16;53.27;;;17.60;;
9789;SDS011;4934;50.852;8.098;2022-12-10T09:24:41;52.43;;;15.67;;
9789;SDS011;4934;50.852;8.098;2022-12-10T09:27:07;58.10;;;16.40;;
9789;SDS011;4934;50.852;8.098;2022-12-10T09:29:32;56.30;;;16.90;;
9789;SDS011;4934;50.852;8.098;2022-12-10T09:31:58;60.27;;;17.90;;
9789;SDS011;4934;50.852;8.098;2022-12-10T09:34:24;49.27;;;15.57;;
9789;SDS011;4934;50.852;8.098;2022-12-10T09:36:49;60.60;;;17.17;;
9789;SDS011;4934;50.852;8.098;2022-12-10T09:39:15;64.53;;;19.10;;
9789;SDS011;4934;50.852;8.098;2022-12-10T09:44:17;68.30;;;17.17;;
9789;SDS011;4934;50.852;8.098;2022-12-10T09:46:53;55.87;;;17.17;;
9789;SDS011;4934;50.852;8.098;2022-12-10T09:51:59;54.37;;;16.80;;
9789;SDS011;4934;50.852;8.098;2022-12-10T09:54:31;51.00;;;14.57;;
9789;SDS011;4934;50.852;8.098;2022-12-10T09:56:59;64.43;;;17.40;;
9789;SDS011;4934;50.852;8.098;2022-12-10T09:59:48;55.17;;;15.00;;
9789;SDS011;4934;50.852;8.098;2022-12-10T10:02:27;48.27;;;14.90;;
9789;SDS011;4934;50.852;8.098;2022-12-10T10:07:37;62.07;;;15.77;;
9789;SDS011;4934;50.852;8.098;2022-12-10T10:10:12;47.43;;;14.40;;
9789;SDS011;4934;50.852;8.098;2022-12-10T10:12:46;89.43;;;20.33;;
9789;SDS011;4934;50.852;8.098;2022-12-10T10:15:13;59.57;;;16.13;;
9789;SDS011;4934;50.852;8.098;2022-12-10T10:17:41;54.17;;;14.80;;
9789;SDS011;4934;50.852;8.098;2022-12-10T10:20:11;47.97;;;13.97;;
9789;SDS011;4934;50.852;8.098;2022-12-10T10:22:37;64.33;;;16.63;;
9789;SDS011;4934;50.852;8.098;2022-12-10T10:25:04;57.90;;;16.20;;
9789;SDS011;4934;50.852;8.098;2022-12-10T10:27:37;57.50;;;17.47;;
9789;SDS011;4934;50.852;8.098;2022-12-10T10:30:03;71.33;;;18.83;;
9789;SDS011;4934;50.852;8.098;2022-12-10T10:35:05;49.97;;;14.77;;
9789;SDS011;4934;50.852;8.098;2022-12-10T10:37:41;44.93;;;14.17;;
9789;SDS011;4934;50.852;8.098;2022-12-10T10:41:11;67.30;;;19.30;;
9789;SDS011;4934;50.852;8.098;2022-12-10T10:43:11;54.50;;;15.77;;
9789;SDS011;4934;50.852;8.098;2022-12-10T10:46:06;62.37;;;17.50;;
9789;SDS011;4934;50.852;8.098;2022-12-10T10:48:36;49.27;;;14.17;;
9789;SDS011;4934;50.852;8.098;2022-12-10T10:51:07;55.77;;;14.73;;
9789;SDS011;4934;50.852;8.098;2022-12-10T10:56:14;52.00;;;14.83;;
9789;SDS011;4934;50.852;8.098;2022-12-10T11:04:24;49.83;;;14.23;;
9789;SDS011;4934;50.852;8.098;2022-12-10T11:07:02;54.07;;;14.00;;
9789;SDS011;4934;50.852;8.098;2022-12-10T11:09:31;63.63;;;16.52;;
9789;SDS011;4934;50.852;8.098;2022-12-10T11:12:03;46.28;;;13.35;;
9789;SDS011;4934;50.852;8.098;2022-12-10T11:14:45;64.47;;;20.60;;
9789;SDS011;4934;50.852;8.098;2022-12-10T11:17:17;61.07;;;19.30;;
9789;SDS011;4934;50.852;8.098;2022-12-10T11:19:53;65.77;;;19.93;;
9789;SDS011;4934;50.852;8.098;2022-12-10T11:22:31;61.37;;;17.37;;
9789;SDS011;4934;50.852;8.098;2022-12-10T11:24:58;48.30;;;14.63;;
9789;SDS011;4934;50.852;8.098;2022-12-10T11:32:41;54.87;;;14.90;;
9789;SDS011;4934;50.852;8.098;2022-12-10T11:35:36;64.00;;;15.63;;
9789;SDS011;4934;50.852;8.098;2022-12-10T11:38:29;50.23;;;15.13;;
9789;SDS011;4934;50.852;8.098;2022-12-10T11:41:12;49.03;;;13.93;;
9789;SDS011;4934;50.852;8.098;2022-12-10T11:52:44;64.83;;;16.63;;
9789;SDS011;4934;50.852;8.098;2022-12-10T11:55:24;64.43;;;16.30;;
9789;SDS011;4934;50.852;8.098;2022-12-10T11:58:17;64.37;;;18.03;;
9789;SDS011;4934;50.852;8.098;2022-12-10T12:00:45;53.83;;;15.50;;
9789;SDS011;4934;50.852;8.098;2022-12-10T12:06:23;66.60;;;17.27;;
9789;SDS011;4934;50.852;8.098;2022-12-10T12:14:19;59.47;;;17.17;;
9789;SDS011;4934;50.852;8.098;2022-12-10T12:19:39;61.50;;;17.93;;
9789;SDS011;4934;50.852;8.098;2022-12-10T12:22:16;70.67;;;21.33;;
9789;SDS011;4934;50.852;8.098;2022-12-10T12:24:52;75.43;;;20.33;;
9789;SDS011;4934;50.852;8.098;2022-12-10T12:27:36;44.43;;;12.73;;
9789;SDS011;4934;50.852;8.098;2022-12-10T12:30:28;47.13;;;13.87;;
9789;SDS011;4934;50.852;8.098;2022-12-10T12:32:57;50.97;;;14.87;;
9789;SDS011;4934;50.852;8.098;2022-12-10T12:35:39;56.10;;;15.77;;
9789;SDS011;4934;50.852;8.098;2022-12-10T12:38:19;56.47;;;17.30;;
9789;SDS011;4934;50.852;8.098;2022-12-10T12:43:52;55.97;;;16.63;;
9789;SDS011;4934;50.852;8.098;2022-12-10T12:46:29;63.03;;;17.30;;
9789;SDS011;4934;50.852;8.098;2022-12-10T12:49:09;69.03;;;18.33;;
9789;SDS011;4934;50.852;8.098;2022-12-10T12:51:40;56.27;;;16.27;;
9789;SDS011;4934;50.852;8.098;2022-12-10T12:54:13;61.63;;;16.90;;
9789;SDS011;4934;50.852;8.098;2022-12-10T12:59:21;66.37;;;18.13;;
9789;SDS011;4934;50.852;8.098;2022-12-10T13:01:51;76.33;;;20.50;;
9789;SDS011;4934;50.852;8.098;2022-12-10T13:04:26;71.67;;;24.07;;
9789;SDS011;4934;50.852;8.098;2022-12-10T13:09:48;78.07;;;23.30;;
9789;SDS011;4934;50.852;8.098;2022-12-10T13:12:26;71.33;;;22.20;;
9789;SDS011;4934;50.852;8.098;2022-12-10T13:19:52;69.17;;;21.80;;
9789;SDS011;4934;50.852;8.098;2022-12-10T13:25:10;80.33;;;24.40;;
9789;SDS011;4934;50.852;8.098;2022-12-10T13:27:54;62.83;;;19.63;;
9789;SDS011;4934;50.852;8.098;2022-12-10T13:30:27;73.23;;;21.37;;
9789;SDS011;4934;50.852;8.098;2022-12-10T13:33:15;68.60;;;19.90;;
9789;SDS011;4934;50.852;8.098;2022-12-10T13:35:49;68.67;;;20.17;;
9789;SDS011;4934;50.852;8.098;2022-12-10T13:38:22;75.43;;;22.43;;
9789;SDS011;4934;50.852;8.098;2022-12-10T13:40:57;85.70;;;25.60;;
9789;SDS011;4934;50.852;8.098;2022-12-10T13:43:50;74.70;;;24.00;;
9789;SDS011;4934;50.852;8.098;2022-12-10T13:49:26;57.57;;;20.03;;
9789;SDS011;4934;50.852;8.098;2022-12-10T13:51:55;69.17;;;21.80;;
9789;SDS011;4934;50.852;8.098;2022-12-10T13:54:48;73.97;;;21.53;;
9789;SDS011;4934;50.852;8.098;2022-12-10T14:00:07;66.80;;;22.63;;
9789;SDS011;4934;50.852;8.098;2022-12-10T14:02:42;60.30;;;19.97;;
9789;SDS011;4934;50.852;8.098;2022-12-10T14:08:16;53.33;;;18.47;;
9789;SDS011;4934;50.852;8.098;2022-12-10T14:10:46;53.80;;;18.43;;
9789;SDS011;4934;50.852;8.098;2022-12-10T14:13:13;66.73;;;20.77;;
9789;SDS011;4934;50.852;8.098;2022-12-10T14:15:41;64.97;;;21.02;;
9789;SDS011;4934;50.852;8.098;2022-12-10T14:18:16;65.07;;;19.40;;
9789;SDS011;4934;50.852;8.098;2022-12-10T14:20:44;72.90;;;25.33;;
9789;SDS011;4934;50.852;8.098;2022-12-10T14:26:18;61.23;;;20.17;;
9789;SDS011;4934;50.852;8.098;2022-12-10T14:29:31;61.80;;;22.33;;
9789;SDS011;4934;50.852;8.098;2022-12-10T14:31:33;64.53;;;21.13;;
9789;SDS011;4934;50.852;8.098;2022-12-10T14:34:03;64.03;;;20.37;;
9789;SDS011;4934;50.852;8.098;2022-12-10T14:36:34;57.83;;;21.43;;
9789;SDS011;4934;50.852;8.098;2022-12-10T14:39:12;69.80;;;21.93;;
9789;SDS011;4934;50.852;8.098;2022-12-10T14:41:40;57.00;;;18.70;;
9789;SDS011;4934;50.852;8.098;2022-12-10T14:44:08;68.47;;;21.23;;
9789;SDS011;4934;50.852;8.098;2022-12-10T14:46:38;61.73;;;18.13;;
9789;SDS011;4934;50.852;8.098;2022-12-10T14:49:03;62.03;;;21.23;;
9789;SDS011;4934;50.852;8.098;2022-12-10T14:51:33;56.67;;;19.27;;
9789;SDS011;4934;50.852;8.098;2022-12-10T14:54:01;62.70;;;19.37;;
9789;SDS011;4934;50.852;8.098;2022-12-10T14:56:31;49.77;;;17.00;;
9789;SDS011;4934;50.852;8.098;2022-12-10T14:59:08;55.80;;;16.97;;
9789;SDS011;4934;50.852;8.098;2022-12-10T15:01:40;64.23;;;17.63;;
9789;SDS011;4934;50.852;8.098;2022-12-10T15:04:12;54.50;;;18.43;;
9789;SDS011;4934;50.852;8.098;2022-12-10T15:06:40;63.37;;;20.17;;
9789;SDS011;4934;50.852;8.098;2022-12-10T15:09:22;55.23;;;17.97;;
9789;SDS011;4934;50.852;8.098;2022-12-10T15:11:53;44.97;;;14.93;;
9789;SDS011;4934;50.852;8.098;2022-12-10T15:14:20;61.30;;;20.00;;
9789;SDS011;4934;50.852;8.098;2022-12-10T15:16:47;54.47;;;18.33;;
9789;SDS011;4934;50.852;8.098;2022-12-10T15:21:50;50.67;;;16.50;;
9789;SDS011;4934;50.852;8.098;2022-12-10T15:24:25;51.83;;;15.93;;
9789;SDS011;4934;50.852;8.098;2022-12-10T15:26:52;76.20;;;26.63;;
9789;SDS011;4934;50.852;8.098;2022-12-10T15:31:47;57.83;;;18.95;;
9789;SDS011;4934;50.852;8.098;2022-12-10T15:34:14;46.13;;;17.63;;
9789;SDS011;4934;50.852;8.098;2022-12-10T15:36:52;57.63;;;18.08;;
9789;SDS011;4934;50.852;8.098;2022-12-10T15:39:31;54.60;;;18.53;;
9789;SDS011;4934;50.852;8.098;2022-12-10T15:42:06;60.17;;;17.73;;
9789;SDS011;4934;50.852;8.098;2022-12-10T15:47:19;54.47;;;18.23;;
9789;SDS011;4934;50.852;8.098;2022-12-10T15:49:48;59.67;;;20.70;;
9789;SDS011;4934;50.852;8.098;2022-12-10T15:52:22;51.53;;;17.93;;
9789;SDS011;4934;50.852;8.098;2022-12-10T15:54:53;66.30;;;23.73;;
9789;SDS011;4934;50.852;8.098;2022-12-10T15:57:21;57.63;;;19.20;;
9789;SDS011;4934;50.852;8.098;2022-12-10T15:59:49;51.25;;;17.58;;
9789;SDS011;4934;50.852;8.098;2022-12-10T16:05:14;61.90;;;19.90;;
9789;SDS011;4934;50.852;8.098;2022-12-10T16:07:40;55.73;;;18.77;;
9789;SDS011;4934;50.852;8.098;2022-12-10T16:10:06;59.00;;;19.67;;
9789;SDS011;4934;50.852;8.098;2022-12-10T16:12:34;52.53;;;18.17;;
9789;SDS011;4934;50.852;8.098;2022-12-10T16:15:03;59.00;;;18.20;;
9789;SDS011;4934;50.852;8.098;2022-12-10T16:17:38;52.90;;;17.87;;
9789;SDS011;4934;50.852;8.098;2022-12-10T16:20:15;57.43;;;20.00;;
9789;SDS011;4934;50.852;8.098;2022-12-10T16:22:51;61.17;;;19.10;;
9789;SDS011;4934;50.852;8.098;2022-12-10T16:25:17;60.33;;;19.30;;
9789;SDS011;4934;50.852;8.098;2022-12-10T16:27:43;52.70;;;19.57;;
9789;SDS011;4934;50.852;8.098;2022-12-10T16:30:13;60.13;;;18.53;;
9789;SDS011;4934;50.852;8.098;2022-12-10T16:32:44;49.23;;;15.77;;
9789;SDS011;4934;50.852;8.098;2022-12-10T16:35:10;54.00;;;17.60;;
9789;SDS011;4934;50.852;8.098;2022-12-10T16:37:39;54.60;;;16.98;;
9789;SDS011;4934;50.852;8.098;2022-12-10T16:40:12;48.40;;;16.40;;
9789;SDS011;4934;50.852;8.098;2022-12-10T16:42:39;57.17;;;18.37;;
9789;SDS011;4934;50.852;8.098;2022-12-10T16:45:13;48.07;;;16.33;;
9789;SDS011;4934;50.852;8.098;2022-12-10T16:47:40;43.10;;;14.53;;
9789;SDS011;4934;50.852;8.098;2022-12-10T16:50:06;49.70;;;17.27;;
9789;SDS011;4934;50.852;8.098;2022-12-10T16:52:33;51.93;;;15.57;;
9789;SDS011;4934;50.852;8.098;2022-12-10T16:54:58;40.40;;;14.30;;
9789;SDS011;4934;50.852;8.098;2022-12-10T16:57:24;52.00;;;15.80;;
9789;SDS011;4934;50.852;8.098;2022-12-10T16:59:49;55.03;;;17.17;;
9789;SDS011;4934;50.852;8.098;2022-12-10T17:02:16;54.23;;;19.50;;
9789;SDS011;4934;50.852;8.098;2022-12-10T17:04:42;54.57;;;19.90;;
9789;SDS011;4934;50.852;8.098;2022-12-10T17:07:14;55.53;;;19.57;;
9789;SDS011;4934;50.852;8.098;2022-12-10T17:12:13;54.60;;;17.53;;